Time;durP1;ratioP1;P1;durP2;ratioP2;P2;SDS_P1;SDS_P2;PMS_P1;PMS_P2;Temp;Humidity;BMP_temperature;BMP_pressure;BME280_temperature;BME280_humidity;BME280_pressure;Samples;Min_cycle;Max_cycle;Signal;HPM_P1;HPM_P2
2024/01/30 00:01:53;;;;;;;;;;;-0.50;99.90;;;;;;5031245;28;20033;-78
2024/01/30 00:04:18;;;;;;;26.65;10.40;;;-0.40;99.90;;;;;;5027825;28;19912;-78
2024/01/30 00:06:45;;;;;;;;;;;-0.40;99.90;;;;;;5029134;28;20030;-77
2024/01/30 00:09:11;;;;;;;32.35;13.27;;;-0.50;99.90;;;;;;5045830;28;19919;-76
2024/01/30 00:11:36;;;;;;;;;;;-0.60;99.90;;;;;;5038904;28;20025;-77
2024/01/30 00:14:03;;;;;;;30.15;12.93;;;-0.60;99.90;;;;;;5020883;28;19915;-78
2024/01/30 00:16:28;;;;;;;32.65;13.85;;;-0.70;99.90;;;;;;5042974;28;20076;-77
2024/01/30 00:18:54;;;;;;;;;;;-0.80;99.90;;;;;;5027210;28;20033;-80
2024/01/30 00:21:20;;;;;;;26.15;12.35;;;-0.90;99.90;;;;;;5039041;28;19921;-77
2024/01/30 00:23:46;;;;;;;22.45;11.52;;;-0.90;99.90;;;;;;5041187;28;20478;-78
2024/01/30 00:26:14;;;;;;;24.00;11.20;;;-0.80;99.90;;;;;;5032785;28;20025;-77
2024/01/30 00:28:40;;;;;;;24.13;9.57;;;-0.70;99.90;;;;;;5051848;28;20037;-78
2024/01/30 00:31:06;;;;;;;21.58;9.82;;;-0.70;99.90;;;;;;5032436;28;20026;-78
2024/01/30 00:33:31;;;;;;;;;;;-0.80;99.90;;;;;;5049631;28;20033;-78
2024/01/30 00:35:57;;;;;;;20.05;9.98;;;-0.90;99.90;;;;;;5032376;28;19920;-78
2024/01/30 00:38:22;;;;;;;;;;;-0.80;99.90;;;;;;5050763;28;20048;-78
2024/01/30 00:40:48;;;;;;;26.92;10.27;;;-0.70;99.90;;;;;;5031995;28;19936;-78
2024/01/30 00:43:15;;;;;;;;;;;-0.80;99.90;;;;;;5032645;28;20045;-78
2024/01/30 00:45:40;;;;;;;22.60;9.60;;;-0.80;99.90;;;;;;5050353;28;19912;-78
2024/01/30 00:48:06;;;;;;;;;;;-0.80;99.90;;;;;;5031971;28;20029;-79
2024/01/30 00:50:31;;;;;;;18.05;9.23;;;-0.70;99.90;;;;;;5031198;28;19905;-78
2024/01/30 00:52:57;;;;;;;;;;;-0.80;99.90;;;;;;5034192;28;20083;-77
2024/01/30 00:55:23;;;;;;;23.52;10.48;;;-0.90;99.90;;;;;;5033062;28;20457;-78
2024/01/30 00:57:48;;;;;;;;;;;-0.90;99.90;;;;;;5051785;28;20529;-78
2024/01/30 01:00:16;;;;;;;34.53;14.38;;;-0.90;99.90;;;;;;5047023;28;20244;-78
2024/01/30 01:02:42;;;;;;;63.97;18.33;;;-0.90;99.90;;;;;;5036539;28;20036;-77
2024/01/30 01:05:09;;;;;;;37.05;12.27;;;-0.90;99.90;;;;;;5018817;28;20022;-77
2024/01/30 01:07:34;;;;;;;19.90;8.10;;;-0.90;99.90;;;;;;5017895;28;20031;-77
2024/01/30 01:10:00;;;;;;;;;;;-0.60;99.90;;;;;;5036847;28;20060;-76
2024/01/30 01:12:26;;;;;;;19.35;9.30;;;-0.70;99.90;;;;;;5036009;28;19905;-77
2024/01/30 01:14:51;;;;;;;;;;;-0.70;99.90;;;;;;5018943;28;20502;-76
2024/01/30 01:17:18;;;;;;;16.92;7.30;;;-0.70;99.90;;;;;;5020974;28;19979;-78
2024/01/30 01:19:44;;;;;;;20.90;9.27;;;-0.80;99.90;;;;;;5023043;28;20513;-78
2024/01/30 01:22:09;;;;;;;;;;;-0.80;99.90;;;;;;5024121;28;20053;-78
2024/01/30 01:24:36;;;;;;;21.02;8.73;;;-0.90;99.90;;;;;;5024696;28;19909;-78
2024/01/30 01:27:02;;;;;;;17.15;7.85;;;-0.90;99.90;;;;;;5024112;28;20056;-78
2024/01/30 01:29:28;;;;;;;;;;;-1.10;99.90;;;;;;5027485;28;20026;-78
2024/01/30 01:31:58;;;;;;;15.40;6.97;;;-1.00;99.90;;;;;;5027138;28;20043;-78
2024/01/30 01:34:24;;;;;;;14.18;7.15;;;-0.90;99.90;;;;;;5024301;28;20097;-77
2024/01/30 01:36:50;;;;;;;13.00;6.60;;;-0.90;99.90;;;;;;5042025;28;20025;-78
2024/01/30 01:39:16;;;;;;;14.02;7.00;;;-0.80;99.90;;;;;;5043738;28;20021;-77
2024/01/30 01:41:42;;;;;;;14.75;7.55;;;-0.80;99.90;;;;;;5020557;28;20494;-77
2024/01/30 01:44:08;;;;;;;;;;;-0.70;99.90;;;;;;5039447;28;20056;-77
2024/01/30 01:46:34;;;;;;;14.10;7.60;;;-0.70;99.90;;;;;;5021825;28;19909;-77
2024/01/30 01:49:03;;;;;;;16.55;7.85;;;-0.70;99.90;;;;;;5027323;28;20029;-76
2024/01/30 01:51:30;;;;;;;17.60;7.38;;;-0.70;99.90;;;;;;5027060;28;20026;-77
2024/01/30 01:53:58;;;;;;;17.23;8.48;;;-0.80;99.90;;;;;;5025290;28;20033;-78
2024/01/30 01:56:25;;;;;;;17.73;7.45;;;-0.80;99.90;;;;;;5044562;28;20026;-77
2024/01/30 01:58:54;;;;;;;17.60;8.20;;;-0.90;99.90;;;;;;5026584;28;20121;-78
2024/01/30 02:01:21;;;;;;;13.73;7.50;;;-1.00;99.90;;;;;;5025315;28;20044;-78
2024/01/30 02:03:47;;;;;;;17.02;7.90;;;-1.00;99.90;;;;;;5025770;28;20022;-78
2024/01/30 02:06:16;;;;;;;;;;;-1.00;99.90;;;;;;5016474;28;20080;-73
2024/01/30 02:08:41;;;;;;;14.18;7.32;;;-1.00;99.90;;;;;;4993493;28;19913;-74
2024/01/30 02:11:07;;;;;;;;;;;-0.90;99.90;;;;;;5011499;28;20033;-73
2024/01/30 02:13:33;;;;;;;14.30;7.10;;;-0.70;99.90;;;;;;5011344;28;19905;-74
2024/01/30 02:15:58;;;;;;;;;;;-0.70;99.90;;;;;;4993908;28;20617;-74
2024/01/30 02:18:24;;;;;;;14.02;6.22;;;-0.80;99.90;;;;;;5010299;28;19912;-74
2024/01/30 02:20:53;;;;;;;;;;;-0.90;99.90;;;;;;4994279;28;20073;-75
2024/01/30 02:23:19;;;;;;;17.48;7.70;;;-0.90;99.90;;;;;;5011720;28;19927;-75
2024/01/30 02:25:45;;;;;;;25.38;10.50;;;-1.00;99.90;;;;;;5009543;28;20033;-75
2024/01/30 02:28:12;;;;;;;;;;;-1.10;99.90;;;;;;5010770;28;20517;-74
2024/01/30 02:30:38;;;;;;;15.52;7.25;;;-1.00;99.90;;;;;;4992164;28;19909;-74
2024/01/30 02:33:03;;;;;;;;;;;-1.10;99.90;;;;;;4992922;28;20038;-74
2024/01/30 02:35:29;;;;;;;32.33;10.52;;;-1.20;99.90;;;;;;5011305;28;19910;-75
2024/01/30 02:37:54;;;;;;;;;;;-1.20;99.90;;;;;;5010492;28;20030;-75
2024/01/30 02:40:20;;;;;;;32.97;11.85;;;-1.30;99.90;;;;;;5007974;28;20405;-75
2024/01/30 02:42:45;;;;;;;;;;;-1.20;99.90;;;;;;5009058;28;20507;-74
2024/01/30 02:45:12;;;;;;;18.42;7.47;;;-1.20;99.90;;;;;;5008872;28;19906;-74
2024/01/30 02:47:37;;;;;;;13.55;7.38;;;-1.30;99.90;;;;;;5009366;28;20022;-75
2024/01/30 02:50:03;;;;;;;;;;;-1.20;99.90;;;;;;5009701;28;20037;-75
2024/01/30 02:52:29;;;;;;;16.33;7.30;;;-1.10;99.90;;;;;;5007802;28;20000;-74
2024/01/30 02:54:54;;;;;;;14.75;6.88;;;-1.10;99.90;;;;;;5009476;28;20022;-74
2024/01/30 02:57:20;;;;;;;;;;;-1.10;99.90;;;;;;5029353;28;20103;-74
2024/01/30 02:59:46;;;;;;;15.73;6.72;;;-1.10;99.90;;;;;;5010614;28;19917;-75
2024/01/30 03:02:11;;;;;;;;;;;-1.20;99.90;;;;;;4991690;28;20435;-74
2024/01/30 03:04:37;;;;;;;29.40;10.02;;;-1.20;99.90;;;;;;5008495;28;20456;-74
2024/01/30 03:07:03;;;;;;;;;;;-1.20;99.90;;;;;;4991480;28;20045;-75
2024/01/30 03:09:29;;;;;;;23.15;10.98;;;-1.10;99.90;;;;;;5008841;28;19906;-74
2024/01/30 03:11:54;;;;;;;;;;;-1.00;99.90;;;;;;5009428;28;20538;-74
2024/01/30 03:14:20;;;;;;;17.95;8.30;;;-0.90;99.90;;;;;;5008861;28;19924;-75
2024/01/30 03:16:45;;;;;;;;;;;-0.80;99.90;;;;;;5009019;28;20582;-74
2024/01/30 03:19:11;;;;;;;20.75;8.50;;;-0.90;99.90;;;;;;4990822;28;19915;-75
2024/01/30 03:21:36;;;;;;;;;;;-0.90;99.90;;;;;;5009182;28;20044;-74
2024/01/30 03:24:02;;;;;;;71.70;22.55;;;-1.00;99.90;;;;;;4991255;28;19909;-75
2024/01/30 03:26:28;;;;;;;;;;;-1.10;99.90;;;;;;4991821;28;20137;-75
2024/01/30 03:28:53;;;;;;;68.60;17.85;;;-1.20;99.90;;;;;;4990741;28;19921;-75
2024/01/30 03:31:19;;;;;;;;;;;-1.20;99.90;;;;;;4993892;28;20038;-74
2024/01/30 03:33:44;;;;;;;22.67;10.18;;;-1.20;99.90;;;;;;4994446;28;19956;-75
2024/01/30 03:36:11;;;;;;;21.17;9.75;;;-1.20;99.90;;;;;;5012222;28;20029;-75
2024/01/30 03:38:36;;;;;;;18.48;8.77;;;-1.30;99.90;;;;;;5012580;28;20108;-75
2024/01/30 03:41:02;;;;;;;;;;;-1.30;99.90;;;;;;4995163;28;20129;-75
2024/01/30 03:43:28;;;;;;;16.90;7.85;;;-1.30;99.90;;;;;;5012264;28;19927;-74
2024/01/30 03:45:53;;;;;;;;;;;-1.30;99.90;;;;;;5012628;28;20029;-75
2024/01/30 03:48:21;;;;;;;17.15;7.70;;;-1.40;99.90;;;;;;5012586;28;20069;-75
2024/01/30 03:50:46;;;;;;;23.80;10.30;;;-1.40;99.90;;;;;;4994439;28;20052;-74
2024/01/30 03:53:12;;;;;;;;;;;-1.30;99.90;;;;;;5012354;28;20793;-75
2024/01/30 03:55:37;;;;;;;22.10;9.38;;;-1.30;99.90;;;;;;5010651;28;19909;-75
2024/01/30 03:58:03;;;;;;;;;;;-1.50;99.90;;;;;;4994725;28;20089;-76
2024/01/30 04:00:28;;;;;;;22.48;9.70;;;-1.50;99.90;;;;;;5011984;28;20382;-75
2024/01/30 04:02:54;;;;;;;22.27;9.20;;;-1.50;99.90;;;;;;5011685;28;20040;-74
2024/01/30 04:05:20;;;;;;;44.15;13.45;;;-1.50;99.90;;;;;;4994302;28;20033;-75
2024/01/30 04:07:46;;;;;;;;;;;-1.50;99.90;;;;;;4994570;28;20049;-75
2024/01/30 04:10:11;;;;;;;50.13;13.55;;;-1.50;99.90;;;;;;4993882;28;19905;-75
2024/01/30 04:12:37;;;;;;;;;;;-1.50;99.90;;;;;;5012346;28;20026;-75
2024/01/30 04:15:03;;;;;;;19.27;10.32;;;-1.50;99.90;;;;;;4993774;28;19949;-75
2024/01/30 04:17:29;;;;;;;13.82;7.80;;;-1.50;99.90;;;;;;5011821;28;20029;-74
2024/01/30 04:19:55;;;;;;;;;;;-1.50;99.90;;;;;;5012231;28;20038;-74
2024/01/30 04:22:21;;;;;;;19.13;8.18;;;-1.50;99.90;;;;;;5011795;28;19955;-75
2024/01/30 04:24:46;;;;;;;15.38;8.13;;;-1.50;99.90;;;;;;4994068;28;20116;-75
2024/01/30 04:27:12;;;;;;;;;;;-1.50;99.90;;;;;;4994486;28;20092;-75
2024/01/30 04:29:38;;;;;;;18.73;8.93;;;-1.50;99.90;;;;;;5011860;28;19910;-75
2024/01/30 04:32:04;;;;;;;25.08;10.00;;;-1.40;99.90;;;;;;5012148;28;20104;-75
2024/01/30 04:34:30;;;;;;;22.48;10.70;;;-1.50;99.90;;;;;;4993924;28;20041;-75
2024/01/30 04:36:55;;;;;;;;;;;-1.50;99.90;;;;;;5012344;28;20030;-75
2024/01/30 04:39:21;;;;;;;19.23;10.00;;;-1.50;99.90;;;;;;5012026;28;19909;-75
2024/01/30 04:41:48;;;;;;;23.20;11.43;;;-1.60;99.90;;;;;;5011345;28;20514;-74
2024/01/30 04:44:14;;;;;;;39.63;13.52;;;-1.70;99.90;;;;;;4994465;28;20407;-74
2024/01/30 04:46:39;;;;;;;;;;;-1.70;99.90;;;;;;5013570;28;20091;-75
2024/01/30 04:49:07;;;;;;;23.95;10.75;;;-1.70;99.90;;;;;;4995453;28;19911;-74
2024/01/30 04:51:33;;;;;;;35.03;13.90;;;-1.70;99.90;;;;;;4993994;28;20586;-74
2024/01/30 04:53:59;;;;;;;28.08;14.00;;;-1.70;99.90;;;;;;5010577;28;20506;-75
2024/01/30 04:56:24;;;;;;;;;;;-1.80;99.90;;;;;;5011693;28;20107;-75
2024/01/30 04:58:50;;;;;;;36.13;16.52;;;-1.70;99.90;;;;;;5010710;28;20355;-75
2024/01/30 05:01:16;;;;;;;;;;;-1.60;99.90;;;;;;5011254;28;20046;-75
2024/01/30 05:03:42;;;;;;;37.47;16.13;;;-1.70;99.90;;;;;;4993194;28;19972;-75
2024/01/30 05:06:07;;;;;;;58.20;21.60;;;-1.70;99.90;;;;;;4992929;28;20088;-75
2024/01/30 05:08:33;;;;;;;;;;;-1.70;99.90;;;;;;5011072;28;20560;-75
2024/01/30 05:11:03;;;;;;;23.00;11.10;;;-1.70;99.90;;;;;;4993258;28;19993;-74
2024/01/30 05:13:32;;;;;;;20.55;10.88;;;-1.60;99.90;;;;;;4993078;28;20022;-75
2024/01/30 05:15:57;;;;;;;22.95;10.88;;;-1.70;99.90;;;;;;5010312;28;20034;-75
2024/01/30 05:18:23;;;;;;;;;;;-1.70;99.90;;;;;;5010618;28;20038;-74
2024/01/30 05:20:50;;;;;;;22.88;9.68;;;-1.70;99.90;;;;;;5010229;28;19917;-74
2024/01/30 05:23:16;;;;;;;22.27;10.98;;;-1.60;99.90;;;;;;5010338;28;20048;-74
2024/01/30 05:25:41;;;;;;;;;;;-1.70;99.90;;;;;;4992821;28;20397;-74
2024/01/30 05:28:07;;;;;;;24.73;12.05;;;-1.60;99.90;;;;;;5010215;28;20433;-74
2024/01/30 05:30:32;;;;;;;;;;;-1.70;99.90;;;;;;5011076;28;20036;-74
2024/01/30 05:32:58;;;;;;;28.63;13.93;;;-1.70;99.90;;;;;;4992379;28;20092;-74
2024/01/30 05:35:23;;;;;;;;;;;-1.60;99.90;;;;;;4992972;28;20034;-75
2024/01/30 05:37:50;;;;;;;23.85;11.98;;;-1.60;99.90;;;;;;5010325;28;20298;-75
2024/01/30 05:40:15;;;;;;;23.60;11.10;;;-1.50;99.90;;;;;;5010234;28;20040;-75
2024/01/30 05:42:41;;;;;;;22.95;11.43;;;-1.50;99.90;;;;;;5010089;28;20042;-75
2024/01/30 05:45:08;;;;;;;;;;;-1.50;99.90;;;;;;4992619;28;20044;-75
2024/01/30 05:47:34;;;;;;;26.80;12.77;;;-1.50;99.90;;;;;;5010017;28;19972;-75
2024/01/30 05:49:59;;;;;;;23.88;12.45;;;-1.60;99.90;;;;;;4992096;28;20056;-72
2024/01/30 05:52:25;;;;;;;22.33;12.13;;;-1.70;99.90;;;;;;5009680;28;20072;-75
2024/01/30 05:54:51;;;;;;;;;;;-1.70;99.90;;;;;;5009126;28;20253;-75
2024/01/30 05:57:16;;;;;;;22.15;11.50;;;-1.80;99.90;;;;;;5008303;28;20374;-75
2024/01/30 05:59:43;;;;;;;20.35;10.80;;;-1.80;99.90;;;;;;4991846;28;20128;-74
2024/01/30 06:02:11;;;;;;;28.80;12.30;;;-1.80;99.90;;;;;;5009857;28;20022;-75
2024/01/30 06:04:37;;;;;;;49.80;19.92;;;-1.80;99.90;;;;;;5009706;28;20061;-75
2024/01/30 06:07:02;;;;;;;54.70;27.60;;;-1.70;99.90;;;;;;4992368;28;20077;-75
2024/01/30 06:09:28;;;;;;;;;;;-1.70;99.90;;;;;;5010288;28;20696;-75
2024/01/30 06:11:55;;;;;;;41.20;18.58;;;-1.70;99.90;;;;;;4991850;28;19955;-75
2024/01/30 06:14:20;;;;;;;42.55;18.40;;;-1.80;99.90;;;;;;4991987;28;20068;-72
2024/01/30 06:16:46;;;;;;;36.53;17.55;;;-1.70;99.90;;;;;;5009373;28;20060;-75
2024/01/30 06:19:11;;;;;;;;;;;-1.80;99.90;;;;;;4992022;28;20538;-75
2024/01/30 06:21:38;;;;;;;37.47;18.63;;;-1.80;99.90;;;;;;5009594;28;19918;-75
2024/01/30 06:24:04;;;;;;;48.92;22.83;;;-1.80;99.90;;;;;;4992070;28;20037;-75
2024/01/30 06:26:30;;;;;;;75.28;33.35;;;-1.70;99.90;;;;;;5009455;28;20045;-74
2024/01/30 06:28:55;;;;;;;76.88;33.70;;;-1.50;99.90;;;;;;4992010;28;20562;-75
2024/01/30 06:31:21;;;;;;;;;;;-1.50;99.90;;;;;;5009872;28;20026;-74
2024/01/30 06:33:47;;;;;;;43.85;20.15;;;-1.50;99.90;;;;;;4991770;28;20428;-75
2024/01/30 06:36:13;;;;;;;43.00;19.80;;;-1.60;99.90;;;;;;5009549;28;20053;-74
2024/01/30 06:38:39;;;;;;;45.15;18.55;;;-1.60;99.90;;;;;;4991663;28;20052;-74
2024/01/30 06:41:05;;;;;;;39.90;19.50;;;-1.60;99.90;;;;;;5009156;28;20034;-74
2024/01/30 06:43:30;;;;;;;35.90;18.50;;;-1.60;99.90;;;;;;5009429;28;20392;-75
2024/01/30 06:45:56;;;;;;;39.72;20.90;;;-1.70;99.90;;;;;;4991703;28;20115;-75
2024/01/30 06:48:21;;;;;;;;;;;-1.50;99.90;;;;;;5010840;28;20555;-74
2024/01/30 06:50:47;;;;;;;42.03;16.90;;;-1.30;99.90;;;;;;4991943;28;20375;-75
2024/01/30 06:53:13;;;;;;;31.45;16.08;;;-1.10;99.90;;;;;;4992581;28;20533;-73
2024/01/30 06:55:39;;;;;;;;;;;-0.70;99.90;;;;;;5011303;28;20046;-75
2024/01/30 06:58:04;;;;;;;36.78;19.83;;;-0.30;99.90;;;;;;5011401;28;19916;-75
2024/01/30 07:00:30;;;;;;;;;;;0.20;99.90;;;;;;5011099;28;20129;-75
2024/01/30 07:02:56;;;;;;;32.45;17.90;;;0.70;99.90;;;;;;5008934;28;19917;-75
2024/01/30 07:05:22;;;;;;;34.00;18.00;;;1.00;99.90;;;;;;4991418;28;20084;-75
2024/01/30 07:07:47;;;;;;;;;;;1.20;99.90;;;;;;4995357;28;20111;-75
2024/01/30 07:10:13;;;;;;;29.55;15.93;;;1.30;99.90;;;;;;5012451;28;20481;-75
2024/01/30 07:12:39;;;;;;;;;;;1.70;99.90;;;;;;5012623;28;20604;-75
2024/01/30 07:15:07;;;;;;;30.17;14.57;;;1.70;99.90;;;;;;5012356;28;20402;-75
2024/01/30 07:17:33;;;;;;;33.47;15.52;;;1.70;99.90;;;;;;5012420;28;20037;-75
2024/01/30 07:19:59;;;;;;;;;;;1.80;99.90;;;;;;5012801;28;20400;-76
2024/01/30 07:22:25;;;;;;;45.63;22.63;;;2.10;99.90;;;;;;5012479;28;19916;-75
2024/01/30 07:24:51;;;;;;;;;;;2.00;99.90;;;;;;5012843;28;20084;-75
2024/01/30 07:27:17;;;;;;;44.88;24.35;;;2.00;99.90;;;;;;4994811;28;19910;-75
2024/01/30 07:29:43;;;;;;;;;;;1.90;99.90;;;;;;5012807;28;20033;-75
2024/01/30 07:32:09;;;;;;;34.92;20.58;;;2.10;99.90;;;;;;5012334;28;19909;-75
2024/01/30 07:34:36;;;;;;;;;;;2.60;99.90;;;;;;5012424;28;20024;-75
2024/01/30 07:37:01;;;;;;;35.13;17.67;;;2.60;99.90;;;;;;5010891;28;19921;-75
2024/01/30 07:39:27;;;;;;;;;;;3.30;99.90;;;;;;4994702;28;20034;-75
2024/01/30 07:41:53;;;;;;;40.15;20.65;;;3.80;99.90;;;;;;5011924;28;20511;-74
2024/01/30 07:44:18;;;;;;;;;;;4.00;99.90;;;;;;4991415;28;20050;-75
2024/01/30 07:46:44;;;;;;;40.20;21.55;;;4.40;99.90;;;;;;4992316;28;20000;-75
2024/01/30 07:49:10;;;;;;;;;;;4.20;99.90;;;;;;4991898;28;20046;-75
2024/01/30 07:51:35;;;;;;;36.55;20.52;;;4.40;99.90;;;;;;4991411;28;20375;-75
2024/01/30 07:54:01;;;;;;;;;;;4.50;99.90;;;;;;4992548;28;20042;-75
2024/01/30 07:56:26;;;;;;;38.53;21.85;;;4.50;99.90;;;;;;4992480;28;19915;-76
2024/01/30 07:58:52;;;;;;;;;;;4.70;99.90;;;;;;4993105;28;20026;-75
2024/01/30 08:01:19;;;;;;;48.05;25.10;;;4.90;99.90;;;;;;4990656;28;19924;-75
2024/01/30 08:03:44;;;;;;;52.20;25.85;;;5.20;99.90;;;;;;4992418;28;20030;-75
2024/01/30 08:06:10;;;;;;;;;;;5.30;99.90;;;;;;4991889;28;20097;-75
2024/01/30 08:08:35;;;;;;;52.17;23.98;;;5.50;99.90;;;;;;4992701;28;19909;-75
2024/01/30 08:11:01;;;;;;;;;;;5.70;99.90;;;;;;4991722;28;20030;-75
2024/01/30 08:13:27;;;;;;;43.70;19.70;;;5.90;99.90;;;;;;4992794;28;19964;-75
2024/01/30 08:15:53;;;;;;;32.65;18.33;;;6.20;99.90;;;;;;4992665;28;20484;-75
2024/01/30 08:18:18;;;;;;;;;;;6.50;99.90;;;;;;4993586;28;20037;-75
2024/01/30 08:20:44;;;;;;;27.70;17.33;;;6.70;99.90;;;;;;4992768;28;19914;-75
2024/01/30 08:23:10;;;;;;;;;;;7.00;99.90;;;;;;4992979;28;20026;-75
2024/01/30 08:25:36;;;;;;;26.58;15.25;;;7.20;98.80;;;;;;4992776;28;19912;-75
2024/01/30 08:28:02;;;;;;;41.92;23.75;;;7.50;98.00;;;;;;4991519;28;20037;-75
2024/01/30 08:30:27;;;;;;;;;;;7.70;96.50;;;;;;4992809;28;20038;-75
2024/01/30 08:32:53;;;;;;;29.77;16.70;;;7.80;94.80;;;;;;4990461;28;20329;-75
2024/01/30 08:35:18;;;;;;;;;;;7.80;94.50;;;;;;4991982;28;20107;-76
2024/01/30 08:37:44;;;;;;;30.02;17.52;;;7.90;93.80;;;;;;4991881;28;19917;-75
2024/01/30 08:40:10;;;;;;;;;;;8.10;93.50;;;;;;4992117;28;20039;-75
2024/01/30 08:42:35;;;;;;;17.08;10.07;;;8.30;92.10;;;;;;4990018;28;19964;-76
2024/01/30 08:45:01;;;;;;;;;;;8.70;90.90;;;;;;4991128;28;20427;-75
2024/01/30 08:47:27;;;;;;;14.13;8.20;;;8.60;86.60;;;;;;4991741;28;19906;-75
2024/01/30 08:49:52;;;;;;;;;;;9.10;87.00;;;;;;4992118;28;20396;-75
2024/01/30 08:52:18;;;;;;;11.40;6.72;;;9.60;83.50;;;;;;4991765;28;19905;-73
2024/01/30 08:54:43;;;;;;;;;;;10.00;81.80;;;;;;4991765;28;20030;-75
2024/01/30 08:57:09;;;;;;;19.05;7.75;;;10.10;78.70;;;;;;4991171;28;19913;-75
2024/01/30 08:59:34;;;;;;;;;;;9.90;77.10;;;;;;4991080;28;20606;-75
2024/01/30 09:02:00;;;;;;;15.45;8.43;;;9.40;74.80;;;;;;4990300;28;20349;-75
2024/01/30 09:04:26;;;;;;;20.40;10.60;;;8.80;79.60;;;;;;4990830;28;20018;-75
2024/01/30 09:06:51;;;;;;;;;;;8.50;82.90;;;;;;4991359;28;20352;-75
2024/01/30 09:09:17;;;;;;;17.98;11.07;;;8.20;84.40;;;;;;4993001;28;19910;-75
2024/01/30 09:11:43;;;;;;;;;;;7.70;85.40;;;;;;4992453;28;20129;-75
2024/01/30 09:14:09;;;;;;;20.42;11.85;;;7.50;85.60;;;;;;4990984;28;19916;-75
2024/01/30 09:16:34;;;;;;;;;;;7.20;88.90;;;;;;4990910;28;20692;-74
2024/01/30 09:19:00;;;;;;;29.15;12.65;;;7.00;90.10;;;;;;4989413;28;20298;-75
2024/01/30 09:21:25;;;;;;;;;;;6.70;90.80;;;;;;4989447;28;20573;-75
2024/01/30 09:23:54;;;;;;;20.70;11.90;;;6.60;91.30;;;;;;4988707;28;19999;-75
2024/01/30 09:26:20;;;;;;;22.38;13.88;;;6.50;91.70;;;;;;4989506;28;20391;-75
2024/01/30 09:28:45;;;;;;;;;;;6.40;91.60;;;;;;4989917;28;20546;-76
2024/01/30 09:31:12;;;;;;;23.70;11.85;;;6.20;92.50;;;;;;4990535;28;20000;-75
2024/01/30 09:33:38;;;;;;;21.73;11.30;;;6.10;93.30;;;;;;4990098;28;20108;-75
2024/01/30 09:36:06;;;;;;;26.60;13.32;;;6.00;93.80;;;;;;4990408;28;20100;-75
2024/01/30 09:38:31;;;;;;;23.35;14.73;;;5.90;94.40;;;;;;4989039;28;20023;-75
2024/01/30 09:41:00;;;;;;;;;;;5.80;95.20;;;;;;4989577;28;20038;-75
2024/01/30 09:43:32;;;;;;;25.40;13.35;;;5.80;96.10;;;;;;5001936;28;19921;-75
2024/01/30 09:46:02;;;;;;;21.00;13.45;;;5.70;96.70;;;;;;5010007;28;20037;-75
2024/01/30 09:48:30;;;;;;;25.73;15.45;;;5.70;97.50;;;;;;5010246;28;20041;-75
2024/01/30 09:50:57;;;;;;;25.67;14.77;;;5.70;96.90;;;;;;4992156;28;20475;-75
2024/01/30 09:53:23;;;;;;;25.60;14.73;;;5.60;97.20;;;;;;5009893;28;20018;-74
2024/01/30 09:55:50;;;;;;;;;;;5.50;98.30;;;;;;4993030;28;20125;-74
2024/01/30 09:58:16;;;;;;;32.85;15.30;;;5.40;99.30;;;;;;4992483;28;19909;-75
2024/01/30 10:00:42;;;;;;;;;;;5.50;99.90;;;;;;4992788;28;20038;-75
2024/01/30 10:03:09;;;;;;;23.15;11.65;;;5.50;99.90;;;;;;5010033;28;19905;-75
2024/01/30 10:05:37;;;;;;;24.45;11.73;;;5.50;99.90;;;;;;5010362;28;20104;-75
2024/01/30 10:08:06;;;;;;;20.65;11.35;;;5.30;98.80;;;;;;5010357;28;20030;-75
2024/01/30 10:10:32;;;;;;;18.20;9.93;;;5.30;99.60;;;;;;4993603;28;20030;-75
2024/01/30 10:12:57;;;;;;;;;;;5.20;99.90;;;;;;5013104;28;20475;-75
2024/01/30 10:15:24;;;;;;;20.27;10.23;;;5.20;99.90;;;;;;5011628;28;19909;-75
2024/01/30 10:17:49;;;;;;;18.88;11.13;;;5.20;99.90;;;;;;4992061;28;20084;-75
2024/01/30 10:20:15;;;;;;;;;;;5.20;99.90;;;;;;4992011;28;20030;-76
2024/01/30 10:22:45;;;;;;;21.55;10.93;;;5.20;99.90;;;;;;5009031;28;19917;-75
2024/01/30 10:25:11;;;;;;;17.77;10.23;;;5.20;99.90;;;;;;5009556;28;20060;-75
2024/01/30 10:27:36;;;;;;;;;;;5.20;99.90;;;;;;4991992;28;20342;-75
2024/01/30 10:30:03;;;;;;;16.08;8.75;;;5.10;99.90;;;;;;4991850;28;19909;-75
2024/01/30 10:32:29;;;;;;;16.77;8.15;;;5.10;99.90;;;;;;4992237;28;20034;-75
2024/01/30 10:34:55;;;;;;;;;;;5.30;99.90;;;;;;5010082;28;20117;-74
2024/01/30 10:37:24;;;;;;;15.60;7.93;;;5.10;99.90;;;;;;5009825;28;19913;-73
2024/01/30 10:39:53;;;;;;;15.48;8.65;;;5.10;99.90;;;;;;5010987;28;20034;-75
2024/01/30 10:42:19;;;;;;;18.23;8.43;;;5.10;99.90;;;;;;4996015;28;20058;-75
2024/01/30 10:44:44;;;;;;;;;;;5.10;99.90;;;;;;5014210;28;20454;-75
2024/01/30 10:47:15;;;;;;;16.65;7.38;;;5.10;99.90;;;;;;5013880;28;20417;-75
2024/01/30 10:49:42;;;;;;;14.40;8.10;;;5.10;99.90;;;;;;5014153;28;20057;-75
2024/01/30 10:52:10;;;;;;;21.70;12.13;;;5.20;99.90;;;;;;5013781;28;20057;-75
2024/01/30 10:54:37;;;;;;;48.88;22.95;;;5.00;99.90;;;;;;4996121;28;20060;-74
2024/01/30 10:57:04;;;;;;;36.05;15.23;;;5.00;99.90;;;;;;4996366;28;20402;-75
2024/01/30 10:59:31;;;;;;;20.00;9.05;;;5.00;99.90;;;;;;4996182;28;20018;-74
2024/01/30 11:01:58;;;;;;;13.90;7.32;;;5.10;99.90;;;;;;4996222;28;20068;-75
2024/01/30 11:04:25;;;;;;;14.52;8.55;;;5.00;99.90;;;;;;4996129;28;20022;-75
2024/01/30 11:06:51;;;;;;;19.15;10.40;;;5.00;99.90;;;;;;5013660;28;20034;-75
2024/01/30 11:09:17;;;;;;;;;;;5.00;99.90;;;;;;4996996;28;20754;-75
2024/01/30 11:12:00;;;;;;;17.13;9.53;;;5.10;99.90;;;;;;4996091;28;19917;-75
2024/01/30 11:14:26;;;;;;;16.15;8.55;;;5.00;99.90;;;;;;4996859;28;20272;-75
2024/01/30 11:16:52;;;;;;;22.88;10.05;;;4.90;99.90;;;;;;5014834;28;20068;-76
2024/01/30 11:19:25;;;;;;;21.02;10.75;;;4.90;99.90;;;;;;4997211;28;20137;-75
2024/01/30 11:21:56;;;;;;;16.10;9.77;;;5.00;99.90;;;;;;4995051;28;20661;-75
2024/01/30 11:24:23;;;;;;;18.85;9.45;;;4.90;99.90;;;;;;4995148;28;20109;-75
2024/01/30 11:26:50;;;;;;;20.08;10.18;;;4.90;99.90;;;;;;5012752;28;20065;-75
2024/01/30 11:29:18;;;;;;;16.80;8.55;;;5.10;99.90;;;;;;5012603;28;20018;-75
2024/01/30 11:31:58;;;;;;;19.15;9.48;;;5.00;99.90;;;;;;4995259;28;20030;-75
2024/01/30 11:34:24;;;;;;;18.40;7.82;;;5.10;99.90;;;;;;5013559;28;20038;-75
2024/01/30 11:36:58;;;;;;;;;;;5.00;99.90;;;;;;5014723;28;20029;-75
2024/01/30 11:39:25;;;;;;;18.08;9.80;;;5.00;99.90;;;;;;4996665;28;19959;-75
2024/01/30 11:41:54;;;;;;;24.92;11.30;;;5.00;99.90;;;;;;5014253;28;20088;-75
2024/01/30 11:44:23;;;;;;;14.52;7.82;;;5.00;99.90;;;;;;5013278;28;20050;-75
2024/01/30 11:46:49;;;;;;;17.92;7.47;;;4.90;99.90;;;;;;5014002;28;20041;-75
2024/01/30 11:49:17;;;;;;;28.02;12.73;;;5.00;99.90;;;;;;5014257;28;20049;-75
2024/01/30 11:51:43;;;;;;;25.27;13.80;;;5.00;99.90;;;;;;4995704;28;20505;-75
2024/01/30 11:54:08;;;;;;;;;;;5.00;99.90;;;;;;4997647;28;20469;-75
2024/01/30 11:56:34;;;;;;;101.72;33.65;;;5.10;99.90;;;;;;5015752;28;19910;-75
2024/01/30 11:59:00;;;;;;;;;;;5.00;99.90;;;;;;4998858;28;20034;-76
2024/01/30 12:01:27;;;;;;;23.15;12.05;;;5.00;99.90;;;;;;5013518;28;19921;-75
2024/01/30 12:03:52;;;;;;;18.73;10.00;;;5.00;99.90;;;;;;5012688;28;20813;-75
2024/01/30 12:06:36;;;;;;;;;;;5.00;99.90;;;;;;5013056;28;20033;-75
2024/01/30 12:09:09;;;;;;;22.05;11.70;;;5.00;99.90;;;;;;5012145;28;20378;-75
2024/01/30 12:11:48;;;;;;;20.63;10.30;;;5.00;99.90;;;;;;5012182;28;20033;-75
2024/01/30 12:14:14;;;;;;;23.95;11.05;;;5.00;99.90;;;;;;5012479;28;20092;-75
2024/01/30 12:16:41;;;;;;;29.58;15.77;;;4.90;99.90;;;;;;4994688;28;20029;-75
2024/01/30 12:19:07;;;;;;;18.55;10.30;;;5.10;99.90;;;;;;4994419;28;20419;-75
2024/01/30 12:21:33;;;;;;;;;;;4.90;99.90;;;;;;4994763;28;20034;-75
2024/01/30 12:24:00;;;;;;;35.67;15.20;;;4.80;99.90;;;;;;4994391;28;19936;-75
2024/01/30 12:26:25;;;;;;;20.17;11.93;;;4.90;99.90;;;;;;4994304;28;20265;-76
2024/01/30 12:28:54;;;;;;;;;;;4.90;99.90;;;;;;5012748;28;20034;-74
2024/01/30 12:31:28;;;;;;;17.98;9.50;;;4.90;99.90;;;;;;5012218;28;20408;-75
2024/01/30 12:33:55;;;;;;;18.88;10.75;;;4.90;99.90;;;;;;5012371;28;20034;-75
2024/01/30 12:36:22;;;;;;;22.60;12.02;;;4.90;99.90;;;;;;5011992;28;20076;-77
2024/01/30 12:38:47;;;;;;;33.40;15.73;;;4.90;99.90;;;;;;5012291;28;20033;-75
2024/01/30 12:41:13;;;;;;;;;;;4.80;99.90;;;;;;4995230;28;20050;-75
2024/01/30 12:43:38;;;;;;;46.58;17.05;;;4.80;99.90;;;;;;5010193;28;19929;-74
2024/01/30 12:46:04;;;;;;;;;;;4.90;99.90;;;;;;4994877;28;20030;-75
2024/01/30 12:48:30;;;;;;;20.05;9.48;;;5.00;99.90;;;;;;5012083;28;20349;-75
2024/01/30 12:50:56;;;;;;;;;;;4.90;99.90;;;;;;4994814;28;20033;-75
2024/01/30 12:53:21;;;;;;;24.25;12.65;;;5.00;99.90;;;;;;4994832;28;19985;-75
2024/01/30 12:55:47;;;;;;;;;;;5.00;99.90;;;;;;4994905;28;20542;-75
2024/01/30 12:58:13;;;;;;;32.83;15.38;;;4.90;99.90;;;;;;5011892;28;19916;-75
2024/01/30 13:00:38;;;;;;;;;;;4.90;99.90;;;;;;5012204;28;20036;-75
2024/01/30 13:03:04;;;;;;;25.52;11.68;;;4.90;99.90;;;;;;4994054;28;19919;-75